Time;durP1;ratioP1;P1;durP2;ratioP2;P2;SDS_P1;SDS_P2;PMS_P1;PMS_P2;Temp;Humidity;BMP_temperature;BMP_pressure;BME280_temperature;BME280_humidity;BME280_pressure;Samples;Min_cycle;Max_cycle;Signal;HPM_P1;HPM_P2
2023/01/22 00:02:01;;;;;;;0.40;0.40;;;;;;;17.90;41.13;102726.59;5130958;28;20103;-43
2023/01/22 00:04:27;;;;;;;0.30;0.30;;;;;;;17.89;41.04;102717.50;5112813;28;20085;-43
2023/01/22 00:06:53;;;;;;;0.30;0.30;;;;;;;17.90;41.06;102730.19;5131100;28;20047;-44
2023/01/22 00:09:21;;;;;;;0.30;0.30;;;;;;;17.90;41.01;102726.59;5131007;28;20040;-45
2023/01/22 00:11:50;;;;;;;0.30;0.30;;;;;;;17.91;41.02;102714.50;5131301;28;20051;-43
2023/01/22 00:14:16;;;;;;;0.30;0.30;;;;;;;17.90;41.10;102713.66;5112620;28;20071;-44
2023/01/22 00:16:42;;;;;;;0.30;0.30;;;;;;;17.91;41.11;102709.00;5130965;28;20490;-46
2023/01/22 00:19:08;;;;;;;0.40;0.40;;;;;;;17.90;41.27;102713.66;5112717;28;20195;-43
2023/01/22 00:21:34;;;;;;;0.40;0.40;;;;;;;17.90;41.28;102716.41;5120577;27;20076;-46
2023/01/22 00:24:00;;;;;;;0.30;0.30;;;;;;;17.91;41.05;102709.81;5132849;27;20046;-45
2023/01/22 00:26:26;;;;;;;0.30;0.30;;;;;;;17.89;41.11;102702.88;5097201;28;20044;-44
2023/01/22 00:28:52;;;;;;;0.40;0.40;;;;;;;17.89;41.21;102709.22;5110539;28;20414;-45
2023/01/22 00:31:18;;;;;;;0.40;0.40;;;;;;;17.89;41.01;102706.47;5110012;28;20082;-45
2023/01/22 00:33:44;;;;;;;0.30;0.30;;;;;;;17.90;40.95;102708.16;5092186;28;20047;-44
2023/01/22 00:36:14;;;;;;;0.30;0.30;;;;;;;17.90;41.17;102696.28;5091843;28;20039;-44
2023/01/22 00:38:40;;;;;;;0.40;0.40;;;;;;;17.90;41.06;102677.81;5091930;28;20048;-43
2023/01/22 00:41:07;;;;;;;0.30;0.30;;;;;;;17.89;41.15;102687.19;5091938;28;20486;-45
2023/01/22 00:43:34;;;;;;;0.40;0.40;;;;;;;17.90;41.10;102680.59;5110311;28;20493;-43
2023/01/22 00:46:00;;;;;;;0.40;0.40;;;;;;;17.90;41.17;102688.00;5098210;28;20089;-44
2023/01/22 00:48:26;;;;;;;0.40;0.40;;;;;;;17.90;41.09;102677.81;5111943;28;20134;-43
2023/01/22 00:50:51;;;;;;;0.30;0.30;;;;;;;17.90;41.09;102668.72;5129663;28;20143;-44
2023/01/22 00:53:17;;;;;;;0.40;0.40;;;;;;;17.91;41.02;102674.00;5110023;28;20051;-44
2023/01/22 00:56:00;;;;;;;0.40;0.40;;;;;;;17.90;41.21;102672.31;5120989;28;20043;-44
2023/01/22 00:58:26;;;;;;;0.40;0.40;;;;;;;17.89;41.18;102670.63;5111943;28;20054;-44
2023/01/22 01:00:53;;;;;;;1.75;1.48;;;;;;;17.89;41.17;102686.34;5094717;28;20650;-44
2023/01/22 01:03:26;;;;;;;0.30;0.30;;;;;;;17.89;41.28;102678.91;5126728;28;20043;-43
2023/01/22 01:05:53;;;;;;;0.30;0.30;;;;;;;17.89;41.10;102676.16;5105323;28;20059;-46
2023/01/22 01:08:19;;;;;;;0.40;0.40;;;;;;;17.89;41.19;102667.03;5130129;27;20119;-45
2023/01/22 01:10:45;;;;;;;0.40;0.40;;;;;;;17.89;41.18;102667.03;5111211;28;20046;-45
2023/01/22 01:13:11;;;;;;;0.40;0.40;;;;;;;17.90;41.11;102674.22;5130050;28;20164;-44
2023/01/22 01:15:37;;;;;;;0.40;0.40;;;;;;;17.89;41.15;102673.41;5130282;28;20489;-44
2023/01/22 01:18:03;;;;;;;0.30;0.30;;;;;;;17.89;40.95;102680.81;5130152;28;20517;-44
2023/01/22 01:20:29;;;;;;;0.40;0.40;;;;;;;17.89;41.17;102661.53;5111549;28;20074;-44
2023/01/22 01:22:55;;;;;;;0.30;0.30;;;;;;;17.90;41.17;102663.22;5111368;28;20433;-44
2023/01/22 01:25:21;;;;;;;0.30;0.30;;;;;;;17.89;41.09;102667.88;5129393;27;20075;-43
2023/01/22 01:27:46;;;;;;;0.30;0.30;;;;;;;17.90;41.16;102680.59;5107349;28;20415;-43
2023/01/22 01:30:12;;;;;;;0.30;0.30;;;;;;;17.89;41.20;102675.31;5115556;28;20047;-45
2023/01/22 01:32:38;;;;;;;0.30;0.30;;;;;;;17.88;41.14;102671.72;5101299;28;20075;-45
2023/01/22 01:35:04;;;;;;;0.40;0.40;;;;;;;17.89;41.12;102673.41;5129749;28;20047;-44
2023/01/22 01:37:30;;;;;;;0.30;0.30;;;;;;;17.90;41.19;102674.22;5094365;28;20055;-45
2023/01/22 01:39:55;;;;;;;0.30;0.30;;;;;;;17.88;41.11;102666.22;5129766;28;20054;-43
2023/01/22 01:42:23;;;;;;;0.30;0.30;;;;;;;17.89;41.05;102665.13;5129667;28;20103;-45
2023/01/22 01:45:26;;;;;;;0.30;0.30;;;;;;;17.90;41.09;102675.06;5094473;28;20182;-44
2023/01/22 01:47:57;;;;;;;0.35;0.35;;;;;;;17.89;41.18;102669.81;5114281;28;20063;-45
2023/01/22 01:50:25;;;;;;;0.30;0.30;;;;;;;17.89;41.08;102664.28;5091106;28;20491;-44
2023/01/22 01:52:51;;;;;;;0.30;0.30;;;;;;;17.89;41.11;102662.38;5074050;28;20051;-44
2023/01/22 01:55:20;;;;;;;0.30;0.30;;;;;;;17.89;41.17;102664.28;5097769;28;20379;-45
2023/01/22 01:57:46;;;;;;;0.30;0.30;;;;;;;17.89;41.21;102658.78;5111069;28;20261;-45
2023/01/22 02:00:13;;;;;;;0.30;0.30;;;;;;;17.89;41.10;102653.25;5129356;28;20071;-43
2023/01/22 02:02:40;;;;;;;0.30;0.30;;;;;;;17.88;41.06;102648.84;5129334;28;20107;-45
2023/01/22 02:05:07;;;;;;;0.30;0.30;;;;;;;17.89;41.14;102647.75;5111140;28;20387;-45
2023/01/22 02:07:33;;;;;;;0.30;0.30;;;;;;;17.87;41.26;102647.13;5110998;28;20043;-45
2023/01/22 02:09:58;;;;;;;0.40;0.40;;;;;;;17.89;41.30;102656.03;5129191;28;20047;-44
2023/01/22 02:12:24;;;;;;;0.40;0.40;;;;;;;17.89;41.11;102656.84;5129328;28;20562;-44
2023/01/22 02:14:50;;;;;;;0.40;0.40;;;;;;;17.89;41.07;102653.25;5129164;28;20075;-45
2023/01/22 02:17:20;;;;;;;0.40;0.40;;;;;;;17.89;41.22;102656.03;5129113;28;20047;-43
2023/01/22 02:19:46;;;;;;;0.40;0.40;;;;;;;17.88;40.90;102652.44;5129116;28;20092;-44
2023/01/22 02:22:30;;;;;;;0.30;0.30;;;;;;;17.89;41.18;102651.34;5126712;27;20445;-44
2023/01/22 02:24:55;;;;;;;0.40;0.40;;;;;;;17.88;41.34;102649.66;5143754;27;20052;-43
2023/01/22 02:27:21;;;;;;;0.40;0.40;;;;;;;17.89;41.19;102647.75;5109666;28;20493;-47
2023/01/22 02:29:47;;;;;;;0.30;0.30;;;;;;;17.89;41.17;102636.72;5132917;28;20054;-46
2023/01/22 02:32:13;;;;;;;0.30;0.30;;;;;;;17.88;41.21;102635.88;5103391;28;20075;-46
2023/01/22 02:34:39;;;;;;;0.30;0.30;;;;;;;17.88;41.13;102635.88;5114505;28;20096;-46
2023/01/22 02:37:04;;;;;;;0.35;0.35;;;;;;;17.87;41.31;102636.94;5114001;28;20134;-47
2023/01/22 02:39:30;;;;;;;0.30;0.30;;;;;;;17.88;41.20;102638.66;5132374;28;20043;-49
2023/01/22 02:41:56;;;;;;;0.30;0.30;;;;;;;17.88;41.12;102630.38;5132602;28;20046;-46
2023/01/22 02:44:22;;;;;;;0.35;0.35;;;;;;;17.88;41.27;102638.66;5122095;28;20432;-47
2023/01/22 02:46:47;;;;;;;0.40;0.40;;;;;;;17.89;41.21;102642.25;5132281;28;20054;-49
2023/01/22 02:49:13;;;;;;;0.40;0.40;;;;;;;17.87;40.93;102636.94;5132625;28;20406;-47
2023/01/22 02:51:39;;;;;;;0.40;0.40;;;;;;;17.88;41.21;102644.16;5132508;28;20047;-46
2023/01/22 02:54:05;;;;;;;0.30;0.30;;;;;;;17.89;41.21;102645.00;5132248;28;20047;-47
2023/01/22 02:56:32;;;;;;;0.35;0.35;;;;;;;17.89;41.25;102642.25;5132054;28;20043;-49
2023/01/22 02:59:00;;;;;;;0.40;0.40;;;;;;;17.88;41.34;102637.81;5132439;28;20093;-46
2023/01/22 03:01:26;;;;;;;0.38;0.38;;;;;;;17.88;41.14;102635.88;5113612;28;20410;-46
2023/01/22 03:03:54;;;;;;;0.30;0.30;;;;;;;17.89;41.18;102633.97;5132119;28;20485;-48
2023/01/22 03:06:24;;;;;;;0.40;0.40;;;;;;;17.88;41.17;102632.28;5102153;28;20137;-45
2023/01/22 03:08:55;;;;;;;0.30;0.30;;;;;;;17.87;41.26;102619.56;5132198;28;20107;-46
2023/01/22 03:11:21;;;;;;;0.30;0.30;;;;;;;17.88;41.18;102624.88;5123051;28;20506;-48
2023/01/22 03:22:05;;;;;;;0.30;0.30;;;;;;;17.87;41.19;102614.06;5088234;28;20620;-49
2023/01/22 03:24:30;;;;;;;0.40;0.40;;;;;;;17.87;41.23;102614.88;5112212;28;20055;-46
2023/01/22 03:26:56;;;;;;;0.30;0.30;;;;;;;17.88;41.25;102613.84;5124319;27;20039;-48
2023/01/22 03:29:22;;;;;;;0.30;0.30;;;;;;;17.87;41.29;102614.06;5120278;28;20100;-46
2023/01/22 03:31:47;;;;;;;0.30;0.30;;;;;;;17.87;41.35;102612.13;5131282;27;20392;-46
2023/01/22 03:34:15;;;;;;;0.30;0.30;;;;;;;17.88;41.30;102610.25;5115905;28;20104;-50
2023/01/22 03:36:41;;;;;;;0.30;0.30;;;;;;;17.88;41.43;102604.72;5130409;28;20043;-46
2023/01/22 03:39:07;;;;;;;0.30;0.30;;;;;;;17.88;41.11;102608.31;5113101;28;20054;-46
2023/01/22 03:41:33;;;;;;;0.30;0.30;;;;;;;17.88;41.23;102604.72;5131739;28;20047;-48
2023/01/22 03:44:00;;;;;;;0.32;0.32;;;;;;;17.88;41.21;102611.09;5131734;28;20070;-46
2023/01/22 03:46:26;;;;;;;0.40;0.40;;;;;;;17.88;41.20;102608.31;5119236;28;20051;-46
2023/01/22 03:48:52;;;;;;;0.40;0.40;;;;;;;17.87;41.14;102609.38;5131985;28;20104;-46
2023/01/22 03:51:18;;;;;;;0.40;0.40;;;;;;;17.88;41.31;102610.25;5113028;28;20059;-46
2023/01/22 03:53:44;;;;;;;0.40;0.40;;;;;;;17.87;41.13;102605.78;5113149;28;20047;-46
2023/01/22 03:56:12;;;;;;;0.30;0.30;;;;;;;17.87;41.27;102609.38;5112579;28;20074;-46
2023/01/22 03:58:38;;;;;;;0.30;0.30;;;;;;;17.88;41.18;102602.81;5112847;28;20512;-47
2023/01/22 04:01:06;;;;;;;0.40;0.40;;;;;;;17.86;41.31;102604.94;5131087;28;20111;-46
2023/01/22 04:03:32;;;;;;;0.30;0.30;;;;;;;17.87;41.20;102614.88;5112653;28;20063;-47
2023/01/22 04:05:59;;;;;;;0.30;0.30;;;;;;;17.87;41.32;102609.38;5095659;28;20047;-47
2023/01/22 04:08:27;;;;;;;0.30;0.30;;;;;;;17.87;41.33;102614.88;5112974;28;20100;-47
2023/01/22 04:10:54;;;;;;;0.20;0.20;;;;;;;17.87;41.29;102608.53;5131280;28;20486;-47
2023/01/22 04:13:19;;;;;;;0.40;0.40;;;;;;;17.87;41.37;102612.13;5131365;28;20047;-46
2023/01/22 04:15:45;;;;;;;0.30;0.30;;;;;;;17.88;41.21;102610.25;5131201;28;20112;-46
2023/01/22 04:18:11;;;;;;;0.30;0.30;;;;;;;17.87;41.36;102612.13;5129366;28;20479;-46
2023/01/22 04:20:37;;;;;;;0.30;0.30;;;;;;;17.86;41.21;102604.09;5123335;27;20139;-46
2023/01/22 04:23:03;;;;;;;0.30;0.30;;;;;;;17.87;41.28;102606.63;5151616;27;20043;-50
2023/01/22 04:25:29;;;;;;;0.30;0.30;;;;;;;17.88;41.47;102604.72;5131983;27;20047;-46
2023/01/22 04:27:54;;;;;;;0.30;0.30;;;;;;;17.88;41.21;102607.50;5112298;28;20066;-48
2023/01/22 04:30:20;;;;;;;0.40;0.40;;;;;;;17.87;41.27;102609.38;5130714;28;20047;-47
2023/01/22 04:32:46;;;;;;;0.40;0.40;;;;;;;17.86;41.09;102610.47;5112158;28;20043;-47
2023/01/22 04:35:11;;;;;;;0.30;0.30;;;;;;;17.88;41.36;102605.56;5130773;28;20189;-48
2023/01/22 04:37:37;;;;;;;0.30;0.30;;;;;;;17.87;41.28;102603.03;5125982;28;20414;-46
2023/01/22 04:40:04;;;;;;;0.40;0.40;;;;;;;17.87;41.17;102603.03;5130277;28;20051;-50
2023/01/22 04:42:31;;;;;;;0.30;0.30;;;;;;;17.88;41.31;102599.22;5112487;28;20043;-47
2023/01/22 04:44:57;;;;;;;0.30;0.30;;;;;;;17.88;41.25;102602.81;5129717;27;20047;-46
2023/01/22 04:47:23;;;;;;;0.30;0.30;;;;;;;17.88;41.12;102607.50;5130660;28;20054;-46
2023/01/22 04:49:49;;;;;;;0.30;0.30;;;;;;;17.87;41.23;102614.06;5130511;28;20070;-47
2023/01/22 04:52:15;;;;;;;0.30;0.30;;;;;;;17.87;41.28;102622.31;5130348;28;20047;-48
2023/01/22 04:54:40;;;;;;;0.30;0.30;;;;;;;17.86;41.36;102618.72;5112203;28;20288;-47
2023/01/22 04:57:06;;;;;;;0.30;0.30;;;;;;;17.87;41.10;102617.66;5130265;28;20178;-46
2023/01/22 04:59:32;;;;;;;0.40;0.40;;;;;;;17.87;41.26;102611.28;5111878;28;20086;-46
2023/01/22 05:01:57;;;;;;;0.30;0.30;;;;;;;17.87;41.20;102608.53;5111558;28;20051;-48
2023/01/22 05:04:23;;;;;;;0.40;0.40;;;;;;;17.87;41.32;102611.28;5130027;28;20182;-50
2023/01/22 05:06:49;;;;;;;0.40;0.40;;;;;;;17.87;41.28;102605.78;5130050;28;20047;-49
2023/01/22 05:09:15;;;;;;;0.47;0.47;;;;;;;17.87;41.31;102617.66;5122442;28;20052;-46
2023/01/22 05:11:41;;;;;;;0.40;0.40;;;;;;;17.86;41.30;102607.69;5123634;28;20103;-46
2023/01/22 05:14:06;;;;;;;0.30;0.30;;;;;;;17.87;41.31;102611.28;5129863;28;20047;-47
2023/01/22 05:16:35;;;;;;;;;;;;;;;17.86;41.13;102610.47;5128327;28;20050;-47
2023/01/22 05:19:00;;;;;;;0.40;0.40;;;;;;;17.86;41.31;102604.09;5111645;28;19924;-47
2023/01/22 05:21:26;;;;;;;0.40;0.40;;;;;;;17.86;41.35;102606.88;5129864;28;20042;-46
2023/01/22 05:23:51;;;;;;;0.40;0.40;;;;;;;17.86;41.19;102604.94;5129699;28;20055;-46
2023/01/22 05:26:17;;;;;;;0.30;0.30;;;;;;;17.85;41.29;102600.50;5128547;27;20069;-46
2023/01/22 05:28:43;;;;;;;0.40;0.40;;;;;;;17.85;41.23;102607.94;5109388;28;20495;-46
2023/01/22 05:31:09;;;;;;;0.40;0.40;;;;;;;17.85;41.27;102603.25;5109152;28;20051;-46
2023/01/22 05:33:35;;;;;;;0.30;0.30;;;;;;;17.85;41.30;102606.03;5109483;28;20185;-47
2023/01/22 05:36:01;;;;;;;0.40;0.40;;;;;;;17.86;41.40;102610.47;5122704;28;20464;-46
2023/01/22 05:38:28;;;;;;;0.30;0.30;;;;;;;17.87;41.23;102609.38;5111145;28;20587;-46
2023/01/22 05:40:54;;;;;;;0.40;0.40;;;;;;;17.86;41.21;102607.69;5111204;28;20479;-48
2023/01/22 05:43:20;;;;;;;0.30;0.30;;;;;;;17.86;41.31;102610.47;5111467;28;20157;-48
2023/01/22 05:45:45;;;;;;;0.40;0.40;;;;;;;17.85;41.28;102602.44;5111063;28;20504;-47
2023/01/22 05:48:11;;;;;;;0.35;0.35;;;;;;;17.87;41.26;102605.78;5129539;28;20534;-47
2023/01/22 05:50:38;;;;;;;0.30;0.30;;;;;;;17.85;41.14;102606.03;5129664;28;20077;-46
2023/01/22 05:53:04;;;;;;;0.30;0.30;;;;;;;17.86;40.96;102609.63;5094203;28;20100;-46
2023/01/22 05:55:31;;;;;;;0.30;0.30;;;;;;;17.85;41.37;102610.69;5110618;28;20096;-46
2023/01/22 05:57:56;;;;;;;0.30;0.30;;;;;;;17.85;41.33;102617.03;5110634;28;20410;-46
2023/01/22 06:00:22;;;;;;;0.30;0.30;;;;;;;17.86;41.37;102617.88;5129339;28;20635;-46
2023/01/22 06:02:48;;;;;;;0.30;0.30;;;;;;;17.86;41.44;102615.13;5128727;28;20050;-48
2023/01/22 06:05:14;;;;;;;0.30;0.30;;;;;;;17.87;41.23;102625.91;5115417;28;20459;-46
2023/01/22 06:07:39;;;;;;;0.30;0.30;;;;;;;17.86;41.33;102617.88;5129066;28;20051;-46
2023/01/22 06:10:05;;;;;;;0.30;0.30;;;;;;;17.86;41.46;102617.88;5129544;28;20058;-46
2023/01/22 06:12:31;;;;;;;0.30;0.30;;;;;;;17.86;41.28;102621.47;5129585;28;20043;-46
2023/01/22 06:14:57;;;;;;;0.30;0.30;;;;;;;17.87;41.26;102619.56;5124895;28;20470;-46
2023/01/22 06:17:23;;;;;;;0.30;0.30;;;;;;;17.86;41.29;102621.47;5108824;28;20052;-46
2023/01/22 06:19:48;;;;;;;0.40;0.40;;;;;;;17.86;41.23;102618.72;5108552;28;20047;-47
2023/01/22 06:22:14;;;;;;;0.30;0.30;;;;;;;17.86;41.21;102615.97;5136551;27;20038;-46
2023/01/22 06:24:40;;;;;;;0.30;0.30;;;;;;;17.86;41.66;102615.13;5145204;27;20046;-48
2023/01/22 06:27:05;;;;;;;0.30;0.30;;;;;;;17.85;41.40;102617.03;5108091;28;20475;-48
2023/01/22 06:29:31;;;;;;;0.30;0.30;;;;;;;17.87;41.08;102619.56;5108660;28;20040;-46
2023/01/22 06:31:57;;;;;;;0.30;0.30;;;;;;;17.86;41.23;102621.47;5108317;28;20051;-47
2023/01/22 06:34:22;;;;;;;0.45;0.45;;;;;;;17.85;41.31;102616.22;5108703;28;20058;-47
2023/01/22 06:36:48;;;;;;;0.30;0.30;;;;;;;17.85;41.22;102628.06;5108437;28;20052;-46
2023/01/22 06:39:14;;;;;;;0.30;0.30;;;;;;;17.86;41.30;102621.47;5108449;28;20104;-47
2023/01/22 06:41:39;;;;;;;0.38;0.38;;;;;;;17.86;41.32;102626.16;5108584;28;20513;-48
2023/01/22 06:44:05;;;;;;;0.30;0.30;;;;;;;17.85;41.39;102624.47;5108447;28;20092;-46
2023/01/22 06:46:31;;;;;;;0.30;0.30;;;;;;;17.86;41.33;102642.69;5108339;28;20375;-46
2023/01/22 06:48:58;;;;;;;0.30;0.30;;;;;;;17.86;41.42;102642.69;5108644;28;20044;-45
2023/01/22 06:51:24;;;;;;;0.32;0.32;;;;;;;17.85;41.30;102628.06;5108314;28;20075;-47
2023/01/22 06:53:50;;;;;;;0.40;0.40;;;;;;;17.86;41.36;102637.19;5090069;28;20052;-46
2023/01/22 06:56:15;;;;;;;0.30;0.30;;;;;;;17.86;41.30;102637.19;5108013;28;20050;-46
2023/01/22 06:58:41;;;;;;;0.30;0.30;;;;;;;17.85;41.49;102633.59;5108331;28;20104;-47
2023/01/22 07:01:08;;;;;;;0.30;0.30;;;;;;;17.86;41.30;102634.41;5107801;28;20048;-46
2023/01/22 07:03:34;;;;;;;0.30;0.30;;;;;;;17.86;41.17;102628.91;5093233;28;20313;-51
2023/01/22 07:06:01;;;;;;;0.30;0.30;;;;;;;17.85;41.39;102633.59;5107702;28;20052;-47
2023/01/22 07:08:28;;;;;;;0.40;0.40;;;;;;;17.85;41.33;102630.84;5074932;28;20065;-46
2023/01/22 07:10:54;;;;;;;0.30;0.30;;;;;;;17.85;41.37;102636.34;5093489;28;20059;-47
2023/01/22 07:13:20;;;;;;;0.30;0.30;;;;;;;17.86;41.36;102639.94;5111700;28;20051;-47
2023/01/22 07:15:45;;;;;;;0.30;0.30;;;;;;;17.85;41.31;102639.09;5104455;28;20096;-47
2023/01/22 07:18:13;;;;;;;0.30;0.30;;;;;;;17.86;41.39;102629.75;5132119;28;20418;-46
2023/01/22 07:20:41;;;;;;;0.30;0.30;;;;;;;17.85;41.33;102635.50;5113976;27;20058;-46
2023/01/22 07:23:07;;;;;;;0.20;0.20;;;;;;;17.86;41.38;102637.19;5117404;27;20050;-46
2023/01/22 07:25:33;;;;;;;0.30;0.30;;;;;;;17.86;41.41;102638.03;5132980;27;20079;-48
2023/01/22 07:28:01;;;;;;;0.30;0.30;;;;;;;17.85;41.36;102650.13;5092942;28;20101;-47
2023/01/22 07:30:27;;;;;;;0.20;0.20;;;;;;;17.85;41.33;102646.53;5111118;28;20055;-46
2023/01/22 07:32:53;;;;;;;0.30;0.30;;;;;;;17.84;41.37;102651.19;5092871;28;20056;-46
2023/01/22 07:35:19;;;;;;;0.30;0.30;;;;;;;17.85;41.41;102657.56;5092889;28;20086;-47
2023/01/22 07:37:53;;;;;;;0.30;0.30;;;;;;;17.86;41.27;102656.47;5111321;28;20120;-46
2023/01/22 07:40:19;;;;;;;0.30;0.30;;;;;;;17.84;41.37;102659.47;5092843;28;20078;-46
2023/01/22 07:42:45;;;;;;;0.40;0.40;;;;;;;17.86;41.32;102667.50;5092899;28;20055;-47
2023/01/22 07:45:11;;;;;;;0.30;0.30;;;;;;;17.86;41.29;102673.00;5111305;28;20452;-46
2023/01/22 07:47:36;;;;;;;0.30;0.30;;;;;;;17.85;41.48;102680.44;5110497;28;20058;-47
2023/01/22 07:50:02;;;;;;;0.30;0.30;;;;;;;17.86;41.46;102675.75;5110970;28;20471;-45
2023/01/22 07:52:28;;;;;;;0.30;0.30;;;;;;;17.85;41.31;102680.44;5111069;28;20046;-47
2023/01/22 07:54:54;;;;;;;0.30;0.30;;;;;;;17.85;41.32;102679.59;5110803;28;20414;-46
2023/01/22 07:57:19;;;;;;;0.30;0.30;;;;;;;17.85;41.32;102685.94;5110516;28;20052;-47
2023/01/22 07:59:45;;;;;;;0.30;0.30;;;;;;;17.85;41.27;102677.69;5111064;28;20299;-46
2023/01/22 08:02:12;;;;;;;0.30;0.30;;;;;;;17.85;41.39;102685.94;5110427;28;20112;-46
2023/01/22 08:04:40;;;;;;;0.40;0.40;;;;;;;17.85;41.07;102696.97;5104453;28;20086;-46
2023/01/22 08:07:05;;;;;;;0.30;0.30;;;;;;;17.84;41.33;102687.03;5092613;28;20048;-48
2023/01/22 08:09:31;;;;;;;0.30;0.30;;;;;;;17.85;41.33;102683.19;5092245;28;20048;-46
2023/01/22 08:11:57;;;;;;;0.30;0.30;;;;;;;17.85;41.19;102693.38;5110918;28;20048;-46
2023/01/22 08:14:22;;;;;;;0.30;0.30;;;;;;;17.85;41.34;102696.97;5110723;28;20047;-47
2023/01/22 08:16:48;;;;;;;0.40;0.40;;;;;;;17.85;41.36;102687.88;5110261;28;20047;-48
2023/01/22 08:19:14;;;;;;;0.30;0.30;;;;;;;17.85;41.02;102694.22;5110422;28;20043;-46
2023/01/22 08:21:39;;;;;;;0.30;0.30;;;;;;;17.85;41.36;102685.94;5128263;27;20486;-48
2023/01/22 08:24:07;;;;;;;0.30;0.30;;;;;;;17.85;41.31;102687.88;5151579;27;20184;-48
2023/01/22 08:26:32;;;;;;;0.30;0.30;;;;;;;17.85;41.29;102694.22;5096834;28;20410;-47
2023/01/22 08:28:58;;;;;;;0.30;0.30;;;;;;;17.84;41.33;102698.06;5110439;28;20475;-46
2023/01/22 08:31:23;;;;;;;0.30;0.30;;;;;;;17.84;41.15;102695.28;5110186;28;20104;-46
2023/01/22 08:33:54;;;;;;;0.30;0.30;;;;;;;17.86;41.44;102703.31;5110573;28;20052;-48
2023/01/22 08:36:19;;;;;;;0.32;0.32;;;;;;;17.85;41.30;102696.13;5109907;28;20100;-48
2023/01/22 08:38:45;;;;;;;0.30;0.30;;;;;;;17.85;41.33;102696.97;5110385;28;20104;-47
2023/01/22 08:41:10;;;;;;;0.40;0.40;;;;;;;17.85;41.32;102701.66;5110310;28;20048;-47
2023/01/22 08:43:36;;;;;;;0.30;0.30;;;;;;;17.86;41.31;102697.81;5110347;28;20410;-46
2023/01/22 08:46:02;;;;;;;0.35;0.35;;;;;;;17.85;41.33;102701.66;5110069;28;20040;-46
2023/01/22 08:48:27;;;;;;;0.30;0.30;;;;;;;17.85;41.31;102696.97;5110072;28;20054;-46
2023/01/22 08:50:53;;;;;;;0.30;0.30;;;;;;;17.85;41.43;102693.38;5110006;28;20097;-46
2023/01/22 08:53:19;;;;;;;0.30;0.30;;;;;;;17.85;41.39;102701.66;5110058;28;20053;-47
2023/01/22 08:55:48;;;;;;;0.30;0.30;;;;;;;17.85;41.37;102705.25;5109635;28;20068;-47
2023/01/22 08:58:14;;;;;;;0.30;0.30;;;;;;;17.84;41.41;102698.06;5109939;28;20210;-47
2023/01/22 09:00:40;;;;;;;0.30;0.30;;;;;;;17.84;41.45;102708.25;5109813;28;20052;-47
2023/01/22 09:03:05;;;;;;;0.30;0.30;;;;;;;17.84;41.47;102699.97;5109683;28;20055;-47
2023/01/22 09:05:31;;;;;;;0.30;0.30;;;;;;;17.84;41.48;102708.25;5118901;28;20422;-46
2023/01/22 09:07:57;;;;;;;0.30;0.30;;;;;;;17.85;41.34;102707.16;5111960;28;20085;-46
2023/01/22 09:10:22;;;;;;;0.30;0.30;;;;;;;17.85;41.41;102712.66;5130129;28;20051;-46
2023/01/22 09:12:48;;;;;;;0.30;0.30;;;;;;;17.84;41.00;102711.00;5130130;28;20050;-46
2023/01/22 09:15:14;;;;;;;0.30;0.30;;;;;;;17.84;41.34;102703.56;5129862;28;20082;-44
2023/01/22 09:17:40;;;;;;;0.35;0.35;;;;;;;17.84;41.31;102697.22;5130251;28;20044;-46
2023/01/22 09:20:07;;;;;;;0.30;0.30;;;;;;;17.84;41.34;102698.06;5130183;28;20054;-45
2023/01/22 09:22:32;;;;;;;0.30;0.30;;;;;;;17.84;41.35;102702.72;5116637;27;20050;-46
2023/01/22 09:24:58;;;;;;;0.40;0.40;;;;;;;17.85;41.43;102701.66;5113327;27;20042;-45
2023/01/22 09:27:24;;;;;;;0.30;0.30;;;;;;;17.85;41.46;102705.25;5129726;28;20134;-47
2023/01/22 09:29:49;;;;;;;0.30;0.30;;;;;;;17.85;41.33;102712.66;5129609;27;20047;-48
2023/01/22 09:32:15;;;;;;;0.30;0.30;;;;;;;17.84;41.13;102709.06;5129628;28;20047;-46
2023/01/22 09:34:41;;;;;;;0.30;0.30;;;;;;;17.85;41.48;102712.66;5111488;28;20199;-47
2023/01/22 09:37:09;;;;;;;0.30;0.30;;;;;;;17.85;41.38;102712.66;5129811;28;20047;-46
2023/01/22 09:39:35;;;;;;;;;;;;;;;17.84;41.39;102714.59;5123288;28;20075;-47
2023/01/22 09:42:01;;;;;;;0.38;0.38;;;;;;;17.85;41.41;102712.66;5109415;28;19969;-46
2023/01/22 09:44:43;;;;;;;0.30;0.30;;;;;;;17.84;41.38;102714.59;5109329;28;20353;-46
2023/01/22 09:47:12;;;;;;;0.40;0.40;;;;;;;17.86;41.38;102725.38;5100281;28;20054;-46
2023/01/22 09:49:56;;;;;;;0.40;0.40;;;;;;;17.84;41.40;102717.34;5129544;28;20043;-46
2023/01/22 09:52:26;;;;;;;0.30;0.30;;;;;;;17.83;41.31;102715.63;5129843;28;20078;-47
2023/01/22 09:54:52;;;;;;;0.40;0.40;;;;;;;17.84;41.34;102719.25;5094326;28;20079;-47
2023/01/22 09:57:18;;;;;;;0.30;0.30;;;;;;;17.85;41.40;102712.66;5110745;28;20043;-46
2023/01/22 09:59:57;;;;;;;0.30;0.30;;;;;;;17.83;41.34;102712.88;5129650;28;20085;-45
2023/01/22 10:02:28;;;;;;;0.32;0.32;;;;;;;17.85;41.12;102718.19;5129479;28;20047;-47
2023/01/22 10:04:59;;;;;;;0.30;0.30;;;;;;;17.84;41.47;102709.06;5094065;28;20055;-46
2023/01/22 10:07:31;;;;;;;0.30;0.30;;;;;;;17.85;41.31;102715.44;5099313;28;20047;-52
2023/01/22 10:10:01;;;;;;;0.30;0.30;;;;;;;17.84;41.48;102714.59;5090710;28;20094;-49
2023/01/22 10:12:28;;;;;;;0.30;0.30;;;;;;;17.85;41.34;102718.19;5090608;28;20071;-47
2023/01/22 10:14:54;;;;;;;0.30;0.30;;;;;;;17.84;41.40;102722.84;5090580;28;20088;-49
2023/01/22 10:17:24;;;;;;;0.30;0.30;;;;;;;17.85;41.50;102709.91;5090456;28;20044;-47
2023/01/22 10:19:53;;;;;;;0.30;0.30;;;;;;;17.84;41.39;102706.31;5090259;28;20086;-46
2023/01/22 10:22:22;;;;;;;0.30;0.30;;;;;;;17.84;41.31;102703.56;5090085;28;20063;-47
2023/01/22 10:24:48;;;;;;;;;;;;;;;17.84;41.38;102705.47;5090541;28;20056;-45
2023/01/22 10:27:16;;;;;;;0.30;0.30;;;;;;;17.82;41.53;102708.44;5122381;28;19923;-46
2023/01/22 10:29:55;;;;;;;0.35;0.35;;;;;;;17.84;41.40;102713.75;5110785;28;20466;-45
2023/01/22 10:32:23;;;;;;;0.30;0.30;;;;;;;17.85;41.36;102715.44;5115202;28;20116;-48
2023/01/22 10:34:58;;;;;;;0.20;0.20;;;;;;;17.85;41.40;102715.44;5093423;28;20209;-47
2023/01/22 10:37:24;;;;;;;0.30;0.30;;;;;;;17.83;41.35;102712.03;5110255;28;20078;-46
2023/01/22 10:39:55;;;;;;;0.30;0.30;;;;;;;17.84;41.51;102706.31;5129205;28;20604;-47
2023/01/22 10:42:24;;;;;;;0.30;0.30;;;;;;;17.83;41.42;102707.38;5111330;28;20470;-47
2023/01/22 10:44:53;;;;;;;0.22;0.22;;;;;;;17.83;41.44;102710.13;5114257;28;20092;-46
2023/01/22 10:47:21;;;;;;;0.30;0.30;;;;;;;17.84;41.45;102702.72;5132531;28;20047;-45
2023/01/22 10:49:48;;;;;;;0.20;0.20;;;;;;;17.83;41.49;102709.28;5097026;28;20513;-47
2023/01/22 10:52:32;;;;;;;0.30;0.30;;;;;;;17.84;41.40;102708.25;5113611;28;20070;-45
2023/01/22 10:54:58;;;;;;;0.30;0.30;;;;;;;17.83;41.25;102706.53;5113615;28;20384;-46
2023/01/22 10:57:27;;;;;;;0.30;0.30;;;;;;;17.84;41.40;102717.34;5132410;28;20086;-47
2023/01/22 11:00:03;;;;;;;0.40;0.40;;;;;;;17.84;41.42;102719.25;5113830;28;20043;-46
2023/01/22 11:02:30;;;;;;;0.30;0.30;;;;;;;17.82;41.51;102711.19;5113694;28;20070;-48
2023/01/22 11:05:06;;;;;;;0.30;0.30;;;;;;;17.84;41.34;102711.00;5131494;28;20051;-46
2023/01/22 11:07:32;;;;;;;0.40;0.40;;;;;;;17.83;41.41;102706.53;5104829;28;20047;-45
2023/01/22 11:10:19;;;;;;;0.30;0.30;;;;;;;17.83;41.59;102701.03;5120426;28;20481;-47
2023/01/22 11:12:51;;;;;;;0.40;0.40;;;;;;;17.83;41.38;102699.09;5114123;28;20128;-46
2023/01/22 11:15:23;;;;;;;0.30;0.30;;;;;;;17.83;41.50;102699.09;5120816;28;20047;-47
2023/01/22 11:17:51;;;;;;;0.30;0.30;;;;;;;17.83;41.57;102692.75;5113643;28;20043;-48
2023/01/22 11:20:22;;;;;;;0.30;0.30;;;;;;;17.84;41.30;102699.97;5113247;28;20058;-45
2023/01/22 11:23:10;;;;;;;0.30;0.30;;;;;;;17.84;41.37;102694.47;5113807;28;20046;-47
2023/01/22 11:25:40;;;;;;;0.30;0.30;;;;;;;17.84;41.46;102698.06;5110199;28;20047;-45
2023/01/22 11:28:17;;;;;;;0.30;0.30;;;;;;;17.84;41.38;102697.22;5128942;28;20059;-47
2023/01/22 11:30:50;;;;;;;0.40;0.40;;;;;;;17.83;41.24;102695.50;5131703;28;20482;-47
2023/01/22 11:33:43;;;;;;;0.30;0.30;;;;;;;17.83;41.31;102696.34;5113856;28;20039;-47
2023/01/22 11:36:16;;;;;;;0.30;0.30;;;;;;;17.84;41.46;102697.22;5116636;28;20085;-47